sensor_id;sensor_type;location;lat;lon;timestamp;pressure;altitude;pressure_sealevel;temperature;humidity
50684;BME280;36654;45.042;38.994;2022-08-20T00:01:40;100442.91;;;26.08;59.95
50684;BME280;36654;45.042;38.994;2022-08-20T00:04:06;100428.03;;;25.99;59.81
50684;BME280;36654;45.042;38.994;2022-08-20T00:06:32;100394.66;;;25.81;60.08
50684;BME280;36654;45.042;38.994;2022-08-20T00:08:58;100443.09;;;26.04;60.27
50684;BME280;36654;45.042;38.994;2022-08-20T00:11:25;100439.56;;;26.02;60.04
50684;BME280;36654;45.042;38.994;2022-08-20T00:13:55;100436.06;;;26.00;60.09
50684;BME280;36654;45.042;38.994;2022-08-20T00:16:23;100438.19;;;25.95;60.03
50684;BME280;36654;45.042;38.994;2022-08-20T00:18:49;100429.25;;;25.93;60.36
50684;BME280;36654;45.042;38.994;2022-08-20T00:21:17;100437.22;;;25.96;60.44
50684;BME280;36654;45.042;38.994;2022-08-20T00:23:45;100435.38;;;25.97;59.97
50684;BME280;36654;45.042;38.994;2022-08-20T00:26:12;100426.44;;;25.95;60.27
50684;BME280;36654;45.042;38.994;2022-08-20T00:28:38;100431.88;;;25.95;59.89
50684;BME280;36654;45.042;38.994;2022-08-20T00:31:06;100423.31;;;25.87;60.50
50684;BME280;36654;45.042;38.994;2022-08-20T00:33:34;100425.91;;;25.88;60.26
50684;BME280;36654;45.042;38.994;2022-08-20T00:36:00;100411.69;;;25.83;60.30
50684;BME280;36654;45.042;38.994;2022-08-20T00:38:35;100447.13;;;25.97;59.99
50684;BME280;36654;45.042;38.994;2022-08-20T00:41:02;100433.28;;;25.86;60.14
50684;BME280;36654;45.042;38.994;2022-08-20T00:43:40;100454.28;;;25.98;60.21
50684;BME280;36654;45.042;38.994;2022-08-20T00:46:17;100461.50;;;25.99;60.29
50684;BME280;36654;45.042;38.994;2022-08-20T00:48:46;100453.53;;;25.96;60.09
50684;BME280;36654;45.042;38.994;2022-08-20T00:56:45;100440.63;;;25.84;59.92
50684;BME280;36654;45.042;38.994;2022-08-20T00:59:15;100463.06;;;25.88;59.83
50684;BME280;36654;45.042;38.994;2022-08-20T01:01:43;100467.84;;;25.82;60.03
50684;BME280;36654;45.042;38.994;2022-08-20T01:04:09;100440.59;;;25.68;60.19
50684;BME280;36654;45.042;38.994;2022-08-20T01:06:37;100454.09;;;25.70;60.49
50684;BME280;36654;45.042;38.994;2022-08-20T01:11:33;100380.19;;;25.15;60.27
50684;BME280;36654;45.042;38.994;2022-08-20T01:14:05;100482.03;;;25.72;60.04
50684;BME280;36654;45.042;38.994;2022-08-20T01:16:47;100485.53;;;25.74;60.28
50684;BME280;36654;45.042;38.994;2022-08-20T01:19:16;100418.38;;;25.28;60.11
50684;BME280;36654;45.042;38.994;2022-08-20T01:21:46;100487.34;;;25.73;60.04
50684;BME280;36654;45.042;38.994;2022-08-20T01:24:29;100503.81;;;25.70;60.11
50684;BME280;36654;45.042;38.994;2022-08-20T01:27:00;100481.97;;;25.56;60.32
50684;BME280;36654;45.042;38.994;2022-08-20T01:29:33;100503.13;;;25.67;60.51
50684;BME280;36654;45.042;38.994;2022-08-20T01:31:59;100485.41;;;25.59;60.45
50684;BME280;36654;45.042;38.994;2022-08-20T01:34:27;100458.09;;;25.47;60.64
50684;BME280;36654;45.042;38.994;2022-08-20T01:36:55;100426.94;;;25.21;60.49
50684;BME280;36654;45.042;38.994;2022-08-20T01:39:28;100488.47;;;25.53;60.78
50684;BME280;36654;45.042;38.994;2022-08-20T01:44:40;100486.66;;;25.54;61.14
50684;BME280;36654;45.042;38.994;2022-08-20T01:47:22;100487.50;;;25.54;61.08
50684;BME280;36654;45.042;38.994;2022-08-20T01:49:55;100350.16;;;24.69;60.76
50684;BME280;36654;45.042;38.994;2022-08-20T01:52:39;100486.78;;;25.51;60.91
50684;BME280;36654;45.042;38.994;2022-08-20T01:55:08;100485.91;;;25.50;60.84
50684;BME280;36654;45.042;38.994;2022-08-20T01:57:35;100470.78;;;25.46;61.09
50684;BME280;36654;45.042;38.994;2022-08-20T02:00:05;100476.97;;;25.48;60.93
50684;BME280;36654;45.042;38.994;2022-08-20T02:02:33;100477.16;;;25.45;61.28
50684;BME280;36654;45.042;38.994;2022-08-20T02:04:58;100464.88;;;25.38;61.35
50684;BME280;36654;45.042;38.994;2022-08-20T02:07:25;100468.94;;;25.47;61.14
50684;BME280;36654;45.042;38.994;2022-08-20T02:09:51;100481.22;;;25.54;61.33
50684;BME280;36654;45.042;38.994;2022-08-20T02:12:17;100492.06;;;25.54;61.74
50684;BME280;36654;45.042;38.994;2022-08-20T02:14:47;100472.53;;;25.47;61.63
50684;BME280;36654;45.042;38.994;2022-08-20T02:17:14;100484.69;;;25.56;61.37
50684;BME280;36654;45.042;38.994;2022-08-20T02:19:44;100496.47;;;25.56;61.49
50684;BME280;36654;45.042;38.994;2022-08-20T02:22:22;100470.69;;;25.48;61.83
50684;BME280;36654;45.042;38.994;2022-08-20T02:24:48;100447.34;;;25.28;61.84
50684;BME280;36654;45.042;38.994;2022-08-20T02:27:15;100489.31;;;25.38;62.27
50684;BME280;36654;45.042;38.994;2022-08-20T02:29:43;100496.97;;;25.30;63.64
50684;BME280;36654;45.042;38.994;2022-08-20T02:32:08;100440.41;;;24.89;63.94
50684;BME280;36654;45.042;38.994;2022-08-20T02:34:34;100532.41;;;25.27;64.19
50684;BME280;36654;45.042;38.994;2022-08-20T02:37:01;100525.41;;;25.23;64.91
50684;BME280;36654;45.042;38.994;2022-08-20T02:39:28;100493.25;;;24.97;65.23
50684;BME280;36654;45.042;38.994;2022-08-20T02:41:54;100528.31;;;25.01;66.29
50684;BME280;36654;45.042;38.994;2022-08-20T02:44:19;100518.22;;;24.87;66.82
50684;BME280;36654;45.042;38.994;2022-08-20T02:46:46;100517.41;;;24.85;67.49
50684;BME280;36654;45.042;38.994;2022-08-20T02:49:13;100478.47;;;24.51;67.91
50684;BME280;36654;45.042;38.994;2022-08-20T02:51:39;100529.50;;;24.78;68.20
50684;BME280;36654;45.042;38.994;2022-08-20T02:54:04;100541.56;;;24.72;68.58
50684;BME280;36654;45.042;38.994;2022-08-20T02:56:30;100410.06;;;23.92;68.96
50684;BME280;36654;45.042;38.994;2022-08-20T02:58:56;100541.72;;;24.69;69.29
50684;BME280;36654;45.042;38.994;2022-08-20T03:01:21;100534.03;;;24.60;69.52
50684;BME280;36654;45.042;38.994;2022-08-20T03:03:47;100530.59;;;24.56;69.51
50684;BME280;36654;45.042;38.994;2022-08-20T03:06:13;100534.28;;;24.55;69.92
50684;BME280;36654;45.042;38.994;2022-08-20T03:08:40;100545.09;;;24.55;70.02
50684;BME280;36654;45.042;38.994;2022-08-20T03:11:07;100540.56;;;24.56;69.99
50684;BME280;36654;45.042;38.994;2022-08-20T03:13:32;100532.53;;;24.54;70.04
50684;BME280;36654;45.042;38.994;2022-08-20T03:16:00;100535.88;;;24.59;70.21
50684;BME280;36654;45.042;38.994;2022-08-20T03:18:30;100542.88;;;24.63;69.91
50684;BME280;36654;45.042;38.994;2022-08-20T03:20:57;100525.16;;;24.56;69.35
50684;BME280;36654;45.042;38.994;2022-08-20T03:23:23;100543.13;;;24.76;68.64
50684;BME280;36654;45.042;38.994;2022-08-20T03:25:49;100534.78;;;24.81;67.61
50684;BME280;36654;45.042;38.994;2022-08-20T03:28:15;100535.28;;;24.89;67.22
50684;BME280;36654;45.042;38.994;2022-08-20T03:30:41;100539.72;;;24.90;67.02
50684;BME280;36654;45.042;38.994;2022-08-20T03:33:07;100518.50;;;24.81;66.97
50684;BME280;36654;45.042;38.994;2022-08-20T03:35:33;100497.31;;;24.71;66.50
50684;BME280;36654;45.042;38.994;2022-08-20T03:38:00;100533.97;;;24.96;66.67
50684;BME280;36654;45.042;38.994;2022-08-20T03:40:29;100525.19;;;24.91;66.18
50684;BME280;36654;45.042;38.994;2022-08-20T03:42:55;100531.84;;;25.03;65.97
50684;BME280;36654;45.042;38.994;2022-08-20T03:45:23;100471.88;;;24.57;65.52
50684;BME280;36654;45.042;38.994;2022-08-20T03:47:50;100542.09;;;24.96;65.54
50684;BME280;36654;45.042;38.994;2022-08-20T03:50:19;100548.50;;;24.95;65.94
50684;BME280;36654;45.042;38.994;2022-08-20T03:52:45;100538.63;;;24.77;65.51
50684;BME280;36654;45.042;38.994;2022-08-20T03:55:11;100556.00;;;24.90;65.52
50684;BME280;36654;45.042;38.994;2022-08-20T03:57:44;100551.38;;;24.92;65.09
50684;BME280;36654;45.042;38.994;2022-08-20T04:00:12;100549.94;;;24.85;65.39
50684;BME280;36654;45.042;38.994;2022-08-20T04:02:38;100565.72;;;24.77;65.29
50684;BME280;36654;45.042;38.994;2022-08-20T04:05:05;100524.47;;;24.52;65.58
50684;BME280;36654;45.042;38.994;2022-08-20T04:07:31;100541.59;;;24.53;65.38
50684;BME280;36654;45.042;38.994;2022-08-20T04:09:57;100585.22;;;24.66;65.72
50684;BME280;36654;45.042;38.994;2022-08-20T04:12:23;100577.19;;;24.64;65.73
50684;BME280;36654;45.042;38.994;2022-08-20T04:14:50;100571.59;;;24.67;65.48
50684;BME280;36654;45.042;38.994;2022-08-20T04:17:19;100554.03;;;24.57;65.51
50684;BME280;36654;45.042;38.994;2022-08-20T04:19:45;100575.00;;;24.71;65.52
50684;BME280;36654;45.042;38.994;2022-08-20T04:22:12;100569.84;;;24.66;65.49
50684;BME280;36654;45.042;38.994;2022-08-20T04:24:40;100583.88;;;24.74;65.77
50684;BME280;36654;45.042;38.994;2022-08-20T04:27:07;100550.06;;;24.64;65.71
50684;BME280;36654;45.042;38.994;2022-08-20T04:29:34;100570.66;;;24.86;65.54
50684;BME280;36654;45.042;38.994;2022-08-20T04:32:02;100573.13;;;24.90;65.06
50684;BME280;36654;45.042;38.994;2022-08-20T04:34:28;100535.97;;;24.75;64.91
50684;BME280;36654;45.042;38.994;2022-08-20T04:36:54;100563.56;;;25.01;65.20
50684;BME280;36654;45.042;38.994;2022-08-20T04:39:20;100569.72;;;25.04;65.40
50684;BME280;36654;45.042;38.994;2022-08-20T04:41:46;100560.06;;;24.98;65.38
50684;BME280;36654;45.042;38.994;2022-08-20T04:44:12;100545.16;;;24.90;64.99
50684;BME280;36654;45.042;38.994;2022-08-20T04:46:39;100567.56;;;25.11;65.18
50684;BME280;36654;45.042;38.994;2022-08-20T04:49:05;100564.13;;;25.07;65.00
50684;BME280;36654;45.042;38.994;2022-08-20T04:51:31;100546.44;;;25.00;65.51
50684;BME280;36654;45.042;38.994;2022-08-20T04:53:59;100558.19;;;25.18;65.05
50684;BME280;36654;45.042;38.994;2022-08-20T04:56:27;100553.38;;;25.23;64.91
50684;BME280;36654;45.042;38.994;2022-08-20T04:58:55;100549.50;;;25.29;65.11
50684;BME280;36654;45.042;38.994;2022-08-20T05:01:21;100546.06;;;25.25;64.85
50684;BME280;36654;45.042;38.994;2022-08-20T05:03:48;100553.63;;;25.36;64.64
50684;BME280;36654;45.042;38.994;2022-08-20T05:06:14;100549.16;;;25.35;64.47
50684;BME280;36654;45.042;38.994;2022-08-20T05:08:42;100550.13;;;25.34;64.67
50684;BME280;36654;45.042;38.994;2022-08-20T05:11:08;100524.78;;;25.16;64.98
50684;BME280;36654;45.042;38.994;2022-08-20T05:13:34;100562.16;;;25.28;64.80
50684;BME280;36654;45.042;38.994;2022-08-20T05:16:00;100541.66;;;25.23;65.27
50684;BME280;36654;45.042;38.994;2022-08-20T05:18:27;100559.22;;;25.33;65.60
50684;BME280;36654;45.042;38.994;2022-08-20T05:20:57;100488.56;;;25.01;65.55
50684;BME280;36654;45.042;38.994;2022-08-20T05:23:28;100530.34;;;25.32;65.17
50684;BME280;36654;45.042;38.994;2022-08-20T05:25:56;100519.78;;;25.26;64.69
50684;BME280;36654;45.042;38.994;2022-08-20T05:28:25;100561.59;;;25.56;64.19
50684;BME280;36654;45.042;38.994;2022-08-20T05:30:52;100581.22;;;25.61;64.28
50684;BME280;36654;45.042;38.994;2022-08-20T05:33:20;100507.59;;;25.34;64.12
50684;BME280;36654;45.042;38.994;2022-08-20T05:35:48;100573.34;;;25.73;64.12
50684;BME280;36654;45.042;38.994;2022-08-20T05:38:16;100567.91;;;25.73;63.84
50684;BME280;36654;45.042;38.994;2022-08-20T05:40:43;100577.22;;;25.69;63.89
50684;BME280;36654;45.042;38.994;2022-08-20T05:43:10;100567.44;;;25.82;63.72
50684;BME280;36654;45.042;38.994;2022-08-20T05:45:37;100538.09;;;25.55;63.84
50684;BME280;36654;45.042;38.994;2022-08-20T05:48:22;100563.75;;;25.83;64.00
50684;BME280;36654;45.042;38.994;2022-08-20T05:50:49;100559.59;;;25.76;63.71
50684;BME280;36654;45.042;38.994;2022-08-20T05:53:17;100575.88;;;25.93;63.62
50684;BME280;36654;45.042;38.994;2022-08-20T05:55:44;100566.09;;;26.07;63.59
50684;BME280;36654;45.042;38.994;2022-08-20T05:58:16;100564.69;;;26.15;63.45
50684;BME280;36654;45.042;38.994;2022-08-20T06:00:44;100571.00;;;26.16;63.31
50684;BME280;36654;45.042;38.994;2022-08-20T06:03:10;100553.13;;;26.12;63.03
50684;BME280;36654;45.042;38.994;2022-08-20T06:05:54;100554.19;;;26.25;62.84
50684;BME280;36654;45.042;38.994;2022-08-20T06:08:19;100534.38;;;26.23;63.21
50684;BME280;36654;45.042;38.994;2022-08-20T06:10:45;100539.28;;;26.32;63.30
50684;BME280;36654;45.042;38.994;2022-08-20T06:13:11;100571.19;;;26.44;62.64
50684;BME280;36654;45.042;38.994;2022-08-20T06:15:38;100542.78;;;26.50;62.89
50684;BME280;36654;45.042;38.994;2022-08-20T06:18:07;100564.00;;;26.75;62.89
50684;BME280;36654;45.042;38.994;2022-08-20T06:20:35;100545.75;;;26.77;62.17
50684;BME280;36654;45.042;38.994;2022-08-20T06:23:03;100556.09;;;26.86;61.90
50684;BME280;36654;45.042;38.994;2022-08-20T06:25:29;100562.59;;;26.84;62.00
50684;BME280;36654;45.042;38.994;2022-08-20T06:27:55;100549.59;;;26.73;61.70
50684;BME280;36654;45.042;38.994;2022-08-20T06:30:20;100544.00;;;26.76;61.94
50684;BME280;36654;45.042;38.994;2022-08-20T06:32:46;100485.97;;;26.45;61.82
50684;BME280;36654;45.042;38.994;2022-08-20T06:35:12;100532.06;;;26.79;61.72
50684;BME280;36654;45.042;38.994;2022-08-20T06:37:39;100491.59;;;26.42;61.58
50684;BME280;36654;45.042;38.994;2022-08-20T06:40:11;100554.31;;;26.85;61.51
50684;BME280;36654;45.042;38.994;2022-08-20T06:42:37;100546.41;;;26.97;60.98
50684;BME280;36654;45.042;38.994;2022-08-20T06:45:18;100551.59;;;27.16;60.60
50684;BME280;36654;45.042;38.994;2022-08-20T06:47:45;100556.72;;;27.22;60.40
50684;BME280;36654;45.042;38.994;2022-08-20T06:50:21;100556.44;;;27.26;59.80
50684;BME280;36654;45.042;38.994;2022-08-20T06:52:48;100554.22;;;27.17;59.64
50684;BME280;36654;45.042;38.994;2022-08-20T06:55:15;100559.63;;;27.19;59.10
50684;BME280;36654;45.042;38.994;2022-08-20T06:57:41;100568.09;;;27.28;59.29
50684;BME280;36654;45.042;38.994;2022-08-20T07:00:13;100575.59;;;27.39;59.20
50684;BME280;36654;45.042;38.994;2022-08-20T07:02:39;100572.19;;;27.36;58.75
50684;BME280;36654;45.042;38.994;2022-08-20T07:05:06;100595.75;;;27.51;58.85
50684;BME280;36654;45.042;38.994;2022-08-20T07:07:32;100517.75;;;27.21;59.02
50684;BME280;36654;45.042;38.994;2022-08-20T07:10:07;100583.72;;;27.69;58.78
50684;BME280;36654;45.042;38.994;2022-08-20T07:12:33;100553.25;;;27.63;58.36
50684;BME280;36654;45.042;38.994;2022-08-20T07:15:05;100564.06;;;27.64;58.82
50684;BME280;36654;45.042;38.994;2022-08-20T07:17:31;100576.09;;;27.60;58.60
50684;BME280;36654;45.042;38.994;2022-08-20T07:19:57;100567.78;;;27.63;58.85
50684;BME280;36654;45.042;38.994;2022-08-20T07:22:23;100507.44;;;27.26;59.13
50684;BME280;36654;45.042;38.994;2022-08-20T07:24:50;100512.13;;;27.39;59.19
50684;BME280;36654;45.042;38.994;2022-08-20T07:27:20;100576.13;;;27.74;58.91
50684;BME280;36654;45.042;38.994;2022-08-20T07:29:46;100570.69;;;27.74;58.22
50684;BME280;36654;45.042;38.994;2022-08-20T07:32:30;100565.22;;;27.74;58.16
50684;BME280;36654;45.042;38.994;2022-08-20T07:34:59;100559.41;;;27.66;58.29
50684;BME280;36654;45.042;38.994;2022-08-20T07:37:25;100548.88;;;27.60;58.53
50684;BME280;36654;45.042;38.994;2022-08-20T07:39:51;100526.31;;;27.58;58.49
50684;BME280;36654;45.042;38.994;2022-08-20T07:42:17;100559.31;;;27.82;58.91
50684;BME280;36654;45.042;38.994;2022-08-20T07:44:43;100554.16;;;27.92;59.32
50684;BME280;36654;45.042;38.994;2022-08-20T07:47:08;100526.69;;;27.81;59.43
50684;BME280;36654;45.042;38.994;2022-08-20T07:49:38;100549.50;;;28.08;58.57
50684;BME280;36654;45.042;38.994;2022-08-20T07:52:05;100550.16;;;28.12;58.17
50684;BME280;36654;45.042;38.994;2022-08-20T07:54:31;100539.75;;;28.04;58.12
50684;BME280;36654;45.042;38.994;2022-08-20T07:57:03;100543.47;;;28.03;58.22
50684;BME280;36654;45.042;38.994;2022-08-20T07:59:29;100538.97;;;28.02;58.34
50684;BME280;36654;45.042;38.994;2022-08-20T08:01:55;100545.41;;;28.01;57.49
50684;BME280;36654;45.042;38.994;2022-08-20T08:04:21;100543.06;;;28.09;57.10
50684;BME280;36654;45.042;38.994;2022-08-20T08:06:49;100532.22;;;28.22;56.83
50684;BME280;36654;45.042;38.994;2022-08-20T08:09:15;100547.47;;;28.39;56.40
50684;BME280;36654;45.042;38.994;2022-08-20T08:11:44;100549.41;;;28.51;56.48
50684;BME280;36654;45.042;38.994;2022-08-20T08:14:18;100524.09;;;28.49;55.94
50684;BME280;36654;45.042;38.994;2022-08-20T08:16:48;100542.28;;;28.63;56.23
50684;BME280;36654;45.042;38.994;2022-08-20T08:19:15;100541.25;;;28.78;55.64
50684;BME280;36654;45.042;38.994;2022-08-20T08:21:42;100529.81;;;28.86;55.99
50684;BME280;36654;45.042;38.994;2022-08-20T08:24:09;100531.88;;;28.95;55.52
50684;BME280;36654;45.042;38.994;2022-08-20T08:26:36;100524.31;;;29.13;55.17
50684;BME280;36654;45.042;38.994;2022-08-20T08:29:02;100531.53;;;29.27;55.13
50684;BME280;36654;45.042;38.994;2022-08-20T08:31:32;100538.53;;;29.31;54.58
50684;BME280;36654;45.042;38.994;2022-08-20T08:33:57;100535.25;;;29.26;54.69
50684;BME280;36654;45.042;38.994;2022-08-20T08:36:23;100540.25;;;29.19;54.68
50684;BME280;36654;45.042;38.994;2022-08-20T08:38:52;100528.47;;;29.19;54.77
50684;BME280;36654;45.042;38.994;2022-08-20T08:41:35;100534.59;;;29.35;55.04
50684;BME280;36654;45.042;38.994;2022-08-20T08:44:08;100520.38;;;29.43;54.89
50684;BME280;36654;45.042;38.994;2022-08-20T08:46:38;100526.50;;;29.59;54.66
50684;BME280;36654;45.042;38.994;2022-08-20T08:49:04;100512.97;;;29.58;54.83
50684;BME280;36654;45.042;38.994;2022-08-20T08:51:52;100510.28;;;29.71;54.87
50684;BME280;36654;45.042;38.994;2022-08-20T08:54:25;100500.06;;;29.60;54.72
50684;BME280;36654;45.042;38.994;2022-08-20T08:56:52;100513.88;;;29.71;54.48
50684;BME280;36654;45.042;38.994;2022-08-20T08:59:19;100494.63;;;29.34;55.50
50684;BME280;36654;45.042;38.994;2022-08-20T09:01:51;100507.97;;;29.26;55.77
50684;BME280;36654;45.042;38.994;2022-08-20T09:04:18;100512.88;;;29.21;55.75
50684;BME280;36654;45.042;38.994;2022-08-20T09:06:46;100512.09;;;29.19;56.47
50684;BME280;36654;45.042;38.994;2022-08-20T09:09:26;100505.88;;;29.17;56.03
50684;BME280;36654;45.042;38.994;2022-08-20T09:11:55;100518.00;;;29.26;55.91
50684;BME280;36654;45.042;38.994;2022-08-20T09:14:22;100530.66;;;29.27;56.13
50684;BME280;36654;45.042;38.994;2022-08-20T09:16:49;100516.47;;;29.34;55.74
50684;BME280;36654;45.042;38.994;2022-08-20T09:19:15;100510.00;;;29.35;55.58
50684;BME280;36654;45.042;38.994;2022-08-20T09:21:41;100514.59;;;29.48;55.59
50684;BME280;36654;45.042;38.994;2022-08-20T09:24:07;100513.50;;;29.63;55.56
50684;BME280;36654;45.042;38.994;2022-08-20T09:26:33;100495.94;;;29.67;55.31
50684;BME280;36654;45.042;38.994;2022-08-20T09:28:58;100523.78;;;29.85;55.69
50684;BME280;36654;45.042;38.994;2022-08-20T09:31:24;100492.09;;;29.82;55.56
50684;BME280;36654;45.042;38.994;2022-08-20T09:33:51;100521.22;;;30.07;54.67
50684;BME280;36654;45.042;38.994;2022-08-20T09:36:17;100502.97;;;30.08;55.09
50684;BME280;36654;45.042;38.994;2022-08-20T09:38:42;100514.84;;;30.20;55.48
50684;BME280;36654;45.042;38.994;2022-08-20T09:41:09;100505.53;;;30.35;55.09
50684;BME280;36654;45.042;38.994;2022-08-20T09:43:34;100483.13;;;30.30;54.65
50684;BME280;36654;45.042;38.994;2022-08-20T09:46:00;100518.19;;;30.60;53.36
50684;BME280;36654;45.042;38.994;2022-08-20T09:48:26;100502.50;;;30.51;51.70
50684;BME280;36654;45.042;38.994;2022-08-20T09:50:51;100514.38;;;30.39;51.54
50684;BME280;36654;45.042;38.994;2022-08-20T09:53:18;100509.84;;;30.26;51.12
50684;BME280;36654;45.042;38.994;2022-08-20T09:55:49;100513.09;;;30.19;51.37
50684;BME280;36654;45.042;38.994;2022-08-20T10:00:57;100515.59;;;30.35;51.23
50684;BME280;36654;45.042;38.994;2022-08-20T10:03:23;100514.38;;;30.39;51.59
50684;BME280;36654;45.042;38.994;2022-08-20T10:05:49;100511.13;;;30.34;51.20
50684;BME280;36654;45.042;38.994;2022-08-20T10:08:16;100541.53;;;30.29;51.22
50684;BME280;36654;45.042;38.994;2022-08-20T10:10:42;100509.50;;;30.18;51.96
50684;BME280;36654;45.042;38.994;2022-08-20T10:13:08;100507.75;;;30.17;51.92
50684;BME280;36654;45.042;38.994;2022-08-20T10:15:33;100480.03;;;29.98;51.44
50684;BME280;36654;45.042;38.994;2022-08-20T10:18:03;100511.19;;;30.08;50.11
50684;BME280;36654;45.042;38.994;2022-08-20T10:20:30;100520.59;;;30.04;50.97
50684;BME280;36654;45.042;38.994;2022-08-20T10:22:56;100512.72;;;29.99;51.32
50684;BME280;36654;45.042;38.994;2022-08-20T10:25:21;100536.75;;;30.07;51.15
50684;BME280;36654;45.042;38.994;2022-08-20T10:27:47;100517.94;;;30.02;51.59
50684;BME280;36654;45.042;38.994;2022-08-20T10:30:13;100515.13;;;30.04;52.40
50684;BME280;36654;45.042;38.994;2022-08-20T10:32:39;100521.34;;;30.06;53.37
50684;BME280;36654;45.042;38.994;2022-08-20T10:35:05;100524.94;;;30.06;53.17
50684;BME280;36654;45.042;38.994;2022-08-20T10:37:31;100515.13;;;30.04;52.82
50684;BME280;36654;45.042;38.994;2022-08-20T10:39:59;100527.34;;;30.11;53.13
50684;BME280;36654;45.042;38.994;2022-08-20T10:42:25;100509.94;;;30.12;52.85
50684;BME280;36654;45.042;38.994;2022-08-20T10:44:50;100516.41;;;30.11;52.29
50684;BME280;36654;45.042;38.994;2022-08-20T10:47:21;100508.75;;;30.16;52.96
50684;BME280;36654;45.042;38.994;2022-08-20T10:49:49;100497.28;;;30.11;53.21
50684;BME280;36654;45.042;38.994;2022-08-20T10:52:16;100492.44;;;30.27;52.87
50684;BME280;36654;45.042;38.994;2022-08-20T10:54:42;100463.72;;;30.09;53.16
50684;BME280;36654;45.042;38.994;2022-08-20T10:57:20;100506.41;;;30.36;52.77
50684;BME280;36654;45.042;38.994;2022-08-20T10:59:48;100504.66;;;30.35;53.24
50684;BME280;36654;45.042;38.994;2022-08-20T11:02:15;100497.22;;;30.37;52.34
50684;BME280;36654;45.042;38.994;2022-08-20T11:04:41;100510.13;;;30.35;52.50
50684;BME280;36654;45.042;38.994;2022-08-20T11:09:40;100496.22;;;30.38;52.34
50684;BME280;36654;45.042;38.994;2022-08-20T11:12:06;100482.19;;;30.42;52.30
50684;BME280;36654;45.042;38.994;2022-08-20T11:14:31;100463.63;;;30.35;52.36
50684;BME280;36654;45.042;38.994;2022-08-20T11:16:58;100496.56;;;30.57;52.05
50684;BME280;36654;45.042;38.994;2022-08-20T11:19:24;100491.59;;;30.62;50.46
50684;BME280;36654;45.042;38.994;2022-08-20T11:21:50;100506.47;;;30.71;48.90
50684;BME280;36654;45.042;38.994;2022-08-20T11:24:16;100483.31;;;30.75;48.37
50684;BME280;36654;45.042;38.994;2022-08-20T11:26:45;100436.38;;;30.57;48.51
50684;BME280;36654;45.042;38.994;2022-08-20T11:29:12;100452.97;;;30.67;50.00
50684;BME280;36654;45.042;38.994;2022-08-20T11:31:38;100463.06;;;30.78;50.19
50684;BME280;36654;45.042;38.994;2022-08-20T11:34:04;100467.31;;;30.82;50.38
50684;BME280;36654;45.042;38.994;2022-08-20T11:36:30;100452.19;;;30.89;50.37
50684;BME280;36654;45.042;38.994;2022-08-20T11:38:56;100471.63;;;30.97;49.45
50684;BME280;36654;45.042;38.994;2022-08-20T11:41:22;100457.47;;;31.03;49.42
50684;BME280;36654;45.042;38.994;2022-08-20T11:43:48;100467.81;;;31.11;48.98
50684;BME280;36654;45.042;38.994;2022-08-20T11:46:13;100452.75;;;31.16;47.59
50684;BME280;36654;45.042;38.994;2022-08-20T11:48:39;100496.19;;;31.21;47.29
50684;BME280;36654;45.042;38.994;2022-08-20T11:51:05;100449.50;;;31.11;47.14
50684;BME280;36654;45.042;38.994;2022-08-20T11:53:30;100440.03;;;31.04;46.86
50684;BME280;36654;45.042;38.994;2022-08-20T11:55:56;100457.00;;;31.21;46.40
50684;BME280;36654;45.042;38.994;2022-08-20T11:58:22;100446.78;;;31.23;46.60
50684;BME280;36654;45.042;38.994;2022-08-20T12:00:48;100467.59;;;31.36;46.11
50684;BME280;36654;45.042;38.994;2022-08-20T12:03:14;100454.06;;;31.46;45.83
50684;BME280;36654;45.042;38.994;2022-08-20T12:05:42;100461.25;;;31.47;45.35
50684;BME280;36654;45.042;38.994;2022-08-20T12:08:09;100460.78;;;31.53;45.24
50684;BME280;36654;45.042;38.994;2022-08-20T12:10:36;100452.31;;;31.56;44.93
50684;BME280;36654;45.042;38.994;2022-08-20T12:13:02;100449.06;;;31.63;44.77
50684;BME280;36654;45.042;38.994;2022-08-20T12:15:27;100447.81;;;31.67;44.14
50684;BME280;36654;45.042;38.994;2022-08-20T12:17:53;100418.94;;;31.40;43.76
50684;BME280;36654;45.042;38.994;2022-08-20T12:20:19;100459.41;;;31.48;44.18
50684;BME280;36654;45.042;38.994;2022-08-20T12:22:45;100453.31;;;31.44;44.58
50684;BME280;36654;45.042;38.994;2022-08-20T12:25:11;100441.47;;;31.44;44.74
50684;BME280;36654;45.042;38.994;2022-08-20T12:27:38;100439.13;;;31.39;44.26
50684;BME280;36654;45.042;38.994;2022-08-20T12:30:07;100396.41;;;31.25;44.33
50684;BME280;36654;45.042;38.994;2022-08-20T12:32:34;100449.69;;;31.55;44.36
50684;BME280;36654;45.042;38.994;2022-08-20T12:34:59;100449.06;;;31.51;44.28
50684;BME280;36654;45.042;38.994;2022-08-20T12:37:27;100430.66;;;31.53;43.64
50684;BME280;36654;45.042;38.994;2022-08-20T12:39:56;100427.91;;;31.53;44.20
50684;BME280;36654;45.042;38.994;2022-08-20T12:42:22;100419.97;;;31.50;44.43
50684;BME280;36654;45.042;38.994;2022-08-20T12:44:48;100434.16;;;31.55;43.83
50684;BME280;36654;45.042;38.994;2022-08-20T12:49:53;100431.16;;;31.58;43.98
50684;BME280;36654;45.042;38.994;2022-08-20T12:52:21;100440.59;;;31.66;44.15
50684;BME280;36654;45.042;38.994;2022-08-20T12:54:47;100434.63;;;31.72;43.99
50684;BME280;36654;45.042;38.994;2022-08-20T12:57:31;100418.69;;;31.66;43.70
50684;BME280;36654;45.042;38.994;2022-08-20T13:00:11;100443.31;;;31.77;44.58
50684;BME280;36654;45.042;38.994;2022-08-20T13:02:37;100435.13;;;31.66;45.03